createdAt,value
2019-03-01T00:00:03.750Z,66
2019-03-01T00:01:03.467Z,66
2019-03-01T00:02:03.067Z,66
2019-03-01T00:03:03.701Z,66
2019-03-01T00:04:03.557Z,66
2019-03-01T00:05:03.722Z,66
2019-03-01T00:06:03.521Z,66
2019-03-01T00:07:03.059Z,66
2019-03-01T00:08:03.737Z,66
2019-03-01T00:09:02.960Z,66
2019-03-01T00:10:03.591Z,66
2019-03-01T00:11:03.509Z,66
2019-03-01T00:12:03.291Z,66
2019-03-01T00:13:02.910Z,66
2019-03-01T00:14:03.285Z,66
2019-03-01T00:15:03.221Z,66
2019-03-01T00:16:02.923Z,66
2019-03-01T00:17:03.733Z,66
2019-03-01T00:18:03.082Z,67
2019-03-01T00:19:03.591Z,67
2019-03-01T00:20:02.996Z,67
2019-03-01T00:21:03.874Z,67
2019-03-01T00:22:03.897Z,67
2019-03-01T00:23:03.453Z,67
2019-03-01T00:24:02.700Z,67
2019-03-01T00:25:02.698Z,67
2019-03-01T00:26:03.779Z,67
2019-03-01T00:27:03.108Z,67
2019-03-01T00:28:03.365Z,67
2019-03-01T00:29:03.643Z,67
2019-03-01T00:30:03.520Z,67
2019-03-01T00:31:02.785Z,67
2019-03-01T00:32:02.858Z,67
2019-03-01T00:33:02.962Z,67
2019-03-01T00:34:03.545Z,67
2019-03-01T00:35:03.501Z,67
2019-03-01T00:36:03.673Z,67
2019-03-01T00:37:03.617Z,67
2019-03-01T00:38:02.649Z,67
2019-03-01T00:39:03.471Z,67
2019-03-01T00:40:03.764Z,67
2019-03-01T00:41:03.514Z,68
2019-03-01T00:42:03.916Z,68
2019-03-01T00:43:03.677Z,68
2019-03-01T00:44:03.778Z,68
2019-03-01T00:45:03.737Z,68
2019-03-01T00:46:03.435Z,68
2019-03-01T00:47:03.584Z,68
2019-03-01T00:48:03.463Z,68
2019-03-01T00:49:03.677Z,68
2019-03-01T00:50:03.452Z,68
2019-03-01T00:51:03.365Z,68
2019-03-01T00:52:03.442Z,68
2019-03-01T00:53:03.553Z,68
2019-03-01T00:54:03.524Z,68
2019-03-01T00:55:03.659Z,68
2019-03-01T00:56:03.503Z,68
2019-03-01T00:57:03.969Z,68
2019-03-01T00:58:03.587Z,68
2019-03-01T00:59:04.128Z,68
2019-03-01T01:00:04.217Z,68
2019-03-01T01:01:03.569Z,68
2019-03-01T01:02:03.715Z,68
2019-03-01T01:03:03.577Z,68
2019-03-01T01:04:03.717Z,68
2019-03-01T01:05:03.456Z,68
2019-03-01T01:06:03.405Z,68
2019-03-01T01:07:03.592Z,68
2019-03-01T01:08:03.802Z,68
2019-03-01T01:09:03.563Z,68
2019-03-01T01:10:03.521Z,68
2019-03-01T01:11:03.618Z,68
2019-03-01T01:12:03.385Z,68
2019-03-01T01:13:03.585Z,68
2019-03-01T01:14:03.407Z,68
2019-03-01T01:15:03.506Z,68
2019-03-01T01:16:03.575Z,68
2019-03-01T01:17:02.935Z,68
2019-03-01T01:18:04.148Z,69
2019-03-01T01:19:03.478Z,69
2019-03-01T01:20:03.938Z,69
2019-03-01T01:21:03.566Z,69
2019-03-01T01:22:03.896Z,69
2019-03-01T01:23:03.523Z,69
2019-03-01T01:24:02.827Z,69
2019-03-01T01:25:03.739Z,69
2019-03-01T01:26:03.845Z,69
2019-03-01T01:27:03.712Z,69
2019-03-01T01:28:03.528Z,69
2019-03-01T01:29:03.456Z,69
2019-03-01T01:30:03.494Z,69
2019-03-01T01:31:03.445Z,69
2019-03-01T01:32:03.612Z,69
2019-03-01T01:33:03.691Z,69
2019-03-01T01:34:03.341Z,69
2019-03-01T01:35:03.502Z,69
2019-03-01T01:36:03.529Z,69
2019-03-01T01:37:03.704Z,69
2019-03-01T01:38:03.316Z,69
2019-03-01T01:39:03.507Z,70
2019-03-01T01:40:03.605Z,70
2019-03-01T01:41:03.632Z,70
2019-03-01T01:42:03.465Z,70
2019-03-01T01:43:03.589Z,70
2019-03-01T01:44:03.584Z,70
2019-03-01T01:45:03.632Z,70
2019-03-01T01:46:03.236Z,70
2019-03-01T01:47:03.261Z,70
2019-03-01T01:48:03.759Z,70
2019-03-01T01:49:03.364Z,70
2019-03-01T01:50:03.652Z,70
2019-03-01T01:51:03.489Z,70
2019-03-01T01:52:03.759Z,70
2019-03-01T01:53:03.437Z,70
2019-03-01T01:54:03.408Z,70
2019-03-01T01:55:03.434Z,70
2019-03-01T01:56:03.304Z,70
2019-03-01T01:57:03.543Z,70
2019-03-01T01:58:02.669Z,70
2019-03-01T01:59:03.413Z,70
2019-03-01T02:00:03.113Z,70
2019-03-01T02:01:03.278Z,70
2019-03-01T02:02:02.994Z,70
2019-03-01T02:03:03.138Z,70
2019-03-01T02:04:03.242Z,70
2019-03-01T02:05:03.395Z,70
2019-03-01T02:06:03.294Z,70
2019-03-01T02:07:03.302Z,70
2019-03-01T02:08:03.408Z,70
2019-03-01T02:09:03.305Z,70
2019-03-01T02:10:03.331Z,70
2019-03-01T02:11:03.159Z,70
2019-03-01T02:12:03.197Z,70
2019-03-01T02:13:02.987Z,70
2019-03-01T02:14:03.397Z,70
2019-03-01T02:15:03.029Z,70
2019-03-01T02:16:03.016Z,71
2019-03-01T02:17:02.964Z,71
2019-03-01T02:18:03.137Z,71
2019-03-01T02:19:02.631Z,71
2019-03-01T02:20:02.645Z,71
2019-03-01T02:21:02.953Z,71
2019-03-01T02:22:03.438Z,71
2019-03-01T02:23:03.155Z,71
2019-03-01T02:24:03.805Z,71
2019-03-01T02:25:03.298Z,71
2019-03-01T02:26:02.884Z,71
2019-03-01T02:27:03.535Z,71
2019-03-01T02:28:02.559Z,71
2019-03-01T02:29:03.765Z,71
2019-03-01T02:30:02.523Z,71
2019-03-01T02:31:03.927Z,71
2019-03-01T02:32:03.054Z,71
2019-03-01T02:33:03.077Z,71
2019-03-01T02:34:03.365Z,71
2019-03-01T02:35:03.784Z,71
2019-03-01T02:36:02.923Z,71
2019-03-01T02:37:03.705Z,71
2019-03-01T02:38:03.687Z,71
2019-03-01T02:39:03.491Z,71
2019-03-01T02:40:03.504Z,71
2019-03-01T02:41:03.937Z,71
2019-03-01T02:42:03.596Z,71
2019-03-01T02:43:03.700Z,71
2019-03-01T02:44:03.562Z,71
2019-03-01T02:45:03.585Z,71
2019-03-01T02:46:03.503Z,71
2019-03-01T02:47:03.743Z,71
2019-03-01T02:48:03.103Z,71
2019-03-01T02:49:03.822Z,71
2019-03-01T02:50:03.098Z,71
2019-03-01T02:51:03.469Z,71
2019-03-01T02:52:03.308Z,71
2019-03-01T02:53:03.704Z,71
2019-03-01T02:54:03.416Z,71
2019-03-01T02:55:03.546Z,71
2019-03-01T02:56:03.709Z,71
2019-03-01T02:57:03.275Z,71
2019-03-01T02:58:03.552Z,71
2019-03-01T02:59:03.525Z,71
2019-03-01T03:00:03.610Z,71
2019-03-01T03:01:03.055Z,71
2019-03-01T03:02:03.481Z,71
2019-03-01T03:03:03.446Z,71
2019-03-01T03:04:03.395Z,71
2019-03-01T03:05:03.380Z,71
2019-03-01T03:06:03.255Z,72
2019-03-01T03:07:03.277Z,72
2019-03-01T03:08:02.950Z,72
2019-03-01T03:09:03.185Z,72
2019-03-01T03:10:02.747Z,72
2019-03-01T03:11:03.273Z,72
2019-03-01T03:12:02.810Z,72
2019-03-01T03:13:03.104Z,72
2019-03-01T03:14:02.972Z,72
2019-03-01T03:15:03.172Z,72
2019-03-01T03:16:03.063Z,72
2019-03-01T03:17:03.059Z,72
2019-03-01T03:18:02.971Z,72
2019-03-01T03:19:03.579Z,73
2019-03-01T03:20:03.077Z,73
2019-03-01T03:21:02.874Z,73
2019-03-01T03:22:03.092Z,74
2019-03-01T03:23:03.708Z,74
2019-03-01T03:24:02.879Z,74
2019-03-01T03:25:03.946Z,74
2019-03-01T03:26:03.905Z,75
2019-03-01T03:27:03.838Z,75
2019-03-01T03:28:03.799Z,75
2019-03-01T03:29:03.755Z,75
2019-03-01T03:30:03.835Z,75
2019-03-01T03:31:03.727Z,75
2019-03-01T03:32:03.990Z,75
2019-03-01T03:33:03.732Z,75
2019-03-01T03:34:03.450Z,75
2019-03-01T03:35:03.574Z,75
2019-03-01T03:36:03.278Z,76
2019-03-01T03:37:03.408Z,76
2019-03-01T03:38:03.186Z,76
2019-03-01T03:39:03.247Z,76
2019-03-01T03:40:03.330Z,77
2019-03-01T03:41:03.354Z,77
2019-03-01T03:42:03.307Z,77
2019-03-01T03:43:03.051Z,77
2019-03-01T03:44:03.118Z,77
2019-03-01T03:45:03.213Z,77
2019-03-01T03:46:02.744Z,77
2019-03-01T03:47:02.996Z,77
2019-03-01T03:48:03.090Z,77
2019-03-01T03:49:03.287Z,77
2019-03-01T03:50:02.861Z,77
2019-03-01T03:51:03.188Z,77
2019-03-01T03:52:03.108Z,77
2019-03-01T03:53:03.314Z,78
2019-03-01T03:54:02.943Z,78
2019-03-01T03:55:03.277Z,79
2019-03-01T03:56:03.067Z,79
2019-03-01T03:57:03.092Z,79
2019-03-01T03:58:03.161Z,79
2019-03-01T03:59:03.529Z,79
2019-03-01T04:00:03.201Z,79
2019-03-01T04:01:03.058Z,79
2019-03-01T04:02:02.743Z,79
2019-03-01T04:03:03.061Z,79
2019-03-01T04:04:03.043Z,79
2019-03-01T04:05:03.130Z,79
2019-03-01T04:06:03.001Z,80
2019-03-01T04:07:02.496Z,80
2019-03-01T04:08:03.199Z,80
2019-03-01T04:09:03.297Z,80
2019-03-01T04:10:03.495Z,80
2019-03-01T04:11:03.101Z,80
2019-03-01T04:12:02.997Z,80
2019-03-01T04:13:03.095Z,80
2019-03-01T04:14:03.593Z,80
2019-03-01T04:15:03.077Z,80
2019-03-01T04:16:03.138Z,80
2019-03-01T04:17:03.007Z,80
2019-03-01T04:18:03.679Z,80
2019-03-01T04:19:02.623Z,80
2019-03-01T04:20:02.894Z,80
2019-03-01T04:21:03.917Z,80
2019-03-01T04:22:03.490Z,80
2019-03-01T04:23:02.789Z,80
2019-03-01T04:24:03.827Z,81
2019-03-01T04:25:02.858Z,81
2019-03-01T04:26:03.526Z,81
2019-03-01T04:27:03.502Z,81
2019-03-01T04:28:03.775Z,81
2019-03-01T04:29:03.755Z,81
2019-03-01T04:30:03.631Z,81
2019-03-01T04:31:03.333Z,81
2019-03-01T04:32:03.544Z,81
2019-03-01T04:33:03.557Z,81
2019-03-01T04:34:06.252Z,81
2019-03-01T04:35:03.611Z,81
2019-03-01T04:36:03.615Z,81
2019-03-01T04:37:03.014Z,81
2019-03-01T04:38:03.198Z,81
2019-03-01T04:39:03.370Z,81
2019-03-01T04:40:03.524Z,82
2019-03-01T04:41:03.489Z,82
2019-03-01T04:42:03.195Z,82
2019-03-01T04:43:03.485Z,82
2019-03-01T04:44:03.262Z,82
2019-03-01T04:45:03.152Z,82
2019-03-01T04:46:03.315Z,82
2019-03-01T04:47:03.378Z,82
2019-03-01T04:48:03.434Z,82
2019-03-01T04:49:03.317Z,82
2019-03-01T04:50:03.427Z,82
2019-03-01T04:51:03.243Z,82
2019-03-01T04:52:03.469Z,82
2019-03-01T04:53:02.974Z,82
2019-03-01T04:54:03.426Z,83
2019-03-01T04:55:03.245Z,83
2019-03-01T04:56:03.217Z,83
2019-03-01T04:57:03.378Z,83
2019-03-01T04:58:03.296Z,83
2019-03-01T04:59:03.206Z,83
2019-03-01T05:00:03.255Z,83
2019-03-01T05:01:03.334Z,83
2019-03-01T05:02:03.168Z,83
2019-03-01T05:03:03.082Z,83
2019-03-01T05:04:03.155Z,83
2019-03-01T05:05:03.364Z,83
2019-03-01T05:06:02.803Z,83
2019-03-01T05:07:03.400Z,83
2019-03-01T05:08:03.004Z,83
2019-03-01T05:09:03.064Z,83
2019-03-01T05:10:03.156Z,83
2019-03-01T05:11:02.944Z,83
2019-03-01T05:12:03.256Z,83
2019-03-01T05:13:03.044Z,83
2019-03-01T05:14:03.169Z,83
2019-03-01T05:15:02.857Z,83
2019-03-01T05:16:02.923Z,83
2019-03-01T05:17:02.967Z,83
2019-03-01T05:18:03.143Z,84
2019-03-01T05:19:02.952Z,83
2019-03-01T05:20:03.110Z,84
2019-03-01T05:21:03.002Z,84
2019-03-01T05:22:02.919Z,84
2019-03-01T05:23:02.899Z,84
2019-03-01T05:24:02.910Z,84
2019-03-01T05:25:03.238Z,84
2019-03-01T05:26:02.884Z,84
2019-03-01T05:27:02.729Z,84
2019-03-01T05:28:03.852Z,84
2019-03-01T05:29:02.884Z,84
2019-03-01T05:30:03.674Z,84
2019-03-01T05:31:03.550Z,84
2019-03-01T05:32:02.904Z,84
2019-03-01T05:33:03.458Z,84
2019-03-01T05:34:03.761Z,84
2019-03-01T05:35:03.662Z,84
2019-03-01T05:36:03.586Z,84
2019-03-01T05:37:03.175Z,84
2019-03-01T05:38:03.178Z,84
2019-03-01T05:39:03.491Z,84
2019-03-01T05:40:03.591Z,84
2019-03-01T05:41:03.378Z,84
2019-03-01T05:42:03.192Z,84
2019-03-01T05:43:03.501Z,84
2019-03-01T05:44:02.944Z,84
2019-03-01T05:45:03.556Z,84
2019-03-01T05:46:03.163Z,84
2019-03-01T05:47:03.084Z,84
2019-03-01T05:48:02.970Z,84
2019-03-01T05:49:03.201Z,84
2019-03-01T05:50:03.099Z,84
2019-03-01T05:51:03.099Z,84
2019-03-01T05:52:03.264Z,84
2019-03-01T05:53:03.660Z,84
2019-03-01T05:54:02.908Z,84
2019-03-01T05:55:02.971Z,84
2019-03-01T05:56:03.252Z,84
2019-03-01T05:57:02.977Z,84
2019-03-01T05:58:03.233Z,84
2019-03-01T05:59:03.850Z,84
2019-03-01T06:00:03.234Z,84
2019-03-01T06:01:02.740Z,84
2019-03-01T06:02:03.019Z,85
2019-03-01T06:03:02.939Z,85
2019-03-01T06:04:03.028Z,85
2019-03-01T06:05:03.189Z,85
2019-03-01T06:06:03.285Z,85
2019-03-01T06:07:03.348Z,85
2019-03-01T06:08:02.787Z,85
2019-03-01T06:09:02.742Z,85
2019-03-01T06:10:02.875Z,85
2019-03-01T06:11:03.853Z,85
2019-03-01T06:12:03.177Z,85
2019-03-01T06:13:02.882Z,85
2019-03-01T06:14:02.968Z,85
2019-03-01T06:15:03.039Z,85
2019-03-01T06:16:02.568Z,85
2019-03-01T06:17:02.560Z,85
2019-03-01T06:18:03.457Z,85
2019-03-01T06:19:03.069Z,85
2019-03-01T06:20:02.674Z,85
2019-03-01T06:21:03.659Z,85
2019-03-01T06:22:03.463Z,85
2019-03-01T06:23:03.590Z,85
2019-03-01T06:24:03.612Z,85
2019-03-01T06:25:03.614Z,85
2019-03-01T06:26:03.445Z,85
2019-03-01T06:27:03.584Z,85
2019-03-01T06:28:03.566Z,85
2019-03-01T06:29:03.613Z,85
2019-03-01T06:30:03.577Z,85
2019-03-01T06:31:03.557Z,86
2019-03-01T06:32:03.578Z,86
2019-03-01T06:33:03.417Z,86
2019-03-01T06:34:03.411Z,86
2019-03-01T06:35:03.574Z,86
2019-03-01T06:36:03.367Z,86
2019-03-01T06:37:03.470Z,86
2019-03-01T06:38:03.408Z,86
2019-03-01T06:39:02.833Z,86
2019-03-01T06:40:03.475Z,86
2019-03-01T06:41:03.472Z,86
2019-03-01T06:42:03.145Z,86
2019-03-01T06:43:03.446Z,86
2019-03-01T06:44:03.382Z,86
2019-03-01T06:45:03.426Z,86
2019-03-01T06:46:03.285Z,86
2019-03-01T06:47:03.374Z,86
2019-03-01T06:48:03.256Z,86
2019-03-01T06:49:03.294Z,86
2019-03-01T06:50:03.388Z,86
2019-03-01T06:51:03.180Z,86
2019-03-01T06:52:03.095Z,86
2019-03-01T06:53:03.053Z,86
2019-03-01T06:54:03.202Z,86
2019-03-01T06:55:02.977Z,86
2019-03-01T06:56:03.229Z,86
2019-03-01T06:57:03.026Z,87
2019-03-01T06:58:03.443Z,87
2019-03-01T06:59:02.931Z,87
2019-03-01T07:00:03.069Z,87
2019-03-01T07:01:02.807Z,87
2019-03-01T07:02:03.095Z,87
2019-03-01T07:03:03.022Z,87
2019-03-01T07:04:03.053Z,87
2019-03-01T07:05:02.674Z,87
2019-03-01T07:06:03.929Z,87
2019-03-01T07:07:02.851Z,87
2019-03-01T07:08:02.777Z,87
2019-03-01T07:09:02.936Z,87
2019-03-01T07:10:03.345Z,87
2019-03-01T07:11:03.648Z,86
2019-03-01T07:12:03.505Z,86
2019-03-01T07:13:03.488Z,86
2019-03-01T07:14:03.597Z,86
2019-03-01T07:15:03.411Z,86
2019-03-01T07:16:03.391Z,86
2019-03-01T07:17:03.301Z,87
2019-03-01T07:18:03.240Z,86
2019-03-01T07:19:03.185Z,86
2019-03-01T07:20:03.515Z,86
2019-03-01T07:21:03.130Z,87
2019-03-01T07:22:03.374Z,87
2019-03-01T07:23:03.331Z,87
2019-03-01T07:24:03.593Z,87
2019-03-01T07:25:03.545Z,87
2019-03-01T07:26:03.362Z,87
2019-03-01T07:27:03.118Z,87
2019-03-01T07:28:03.138Z,87
2019-03-01T07:29:03.144Z,87
2019-03-01T07:30:02.816Z,87
2019-03-01T07:31:03.308Z,87
2019-03-01T07:32:02.826Z,87
2019-03-01T07:33:03.171Z,87
2019-03-01T07:34:03.304Z,87
2019-03-01T07:35:03.167Z,87
2019-03-01T07:36:02.889Z,87
2019-03-01T07:37:02.938Z,87
2019-03-01T07:38:03.027Z,87
2019-03-01T07:39:03.443Z,86
2019-03-01T07:40:03.299Z,86
2019-03-01T07:41:02.747Z,86
2019-03-01T07:42:03.092Z,86
2019-03-01T07:43:03.023Z,86
2019-03-01T07:44:02.868Z,86
2019-03-01T07:45:02.768Z,86
2019-03-01T07:46:03.359Z,86
2019-03-01T07:47:03.773Z,86
2019-03-01T07:48:02.814Z,86
2019-03-01T07:49:02.959Z,86
2019-03-01T07:50:03.022Z,86
2019-03-01T07:51:03.677Z,86
2019-03-01T07:52:06.061Z,86
2019-03-01T07:53:04.963Z,86
2019-03-01T07:54:03.153Z,86
2019-03-01T07:55:02.982Z,86
2019-03-01T07:56:05.588Z,86
2019-03-01T07:57:03.103Z,86
2019-03-01T07:58:02.964Z,86
2019-03-01T07:59:03.461Z,86
2019-03-01T08:00:03.100Z,86
2019-03-01T08:01:03.226Z,86
2019-03-01T08:02:05.281Z,86
2019-03-01T08:03:03.357Z,86
2019-03-01T08:04:03.009Z,86
2019-03-01T08:05:05.285Z,86
2019-03-01T08:06:03.065Z,86
2019-03-01T08:07:03.100Z,86
2019-03-01T08:08:03.894Z,86
2019-03-01T08:09:03.561Z,86
2019-03-01T08:10:03.648Z,86
2019-03-01T08:11:03.378Z,86
2019-03-01T08:12:08.270Z,86
2019-03-01T08:13:03.691Z,86
2019-03-01T08:14:03.686Z,86
2019-03-01T08:15:09.640Z,86
2019-03-01T08:16:03.508Z,86
2019-03-01T08:17:03.829Z,86
2019-03-01T08:18:09.448Z,86
2019-03-01T08:19:03.209Z,86
2019-03-01T08:20:03.671Z,86
2019-03-01T08:21:11.578Z,86
2019-03-01T08:22:03.250Z,86
2019-03-01T08:23:03.361Z,86
2019-03-01T08:24:03.705Z,86
2019-03-01T08:25:03.445Z,86
2019-03-01T08:26:03.916Z,86
2019-03-01T08:27:11.262Z,86
2019-03-01T08:28:03.296Z,86
2019-03-01T08:29:03.671Z,86
2019-03-01T08:30:11.379Z,86
2019-03-01T08:31:03.362Z,86
2019-03-01T08:32:03.286Z,86
2019-03-01T08:33:08.104Z,86
2019-03-01T08:34:03.309Z,86
2019-03-01T08:35:06.243Z,86
2019-03-01T08:36:07.303Z,86
2019-03-01T08:37:02.919Z,86
2019-03-01T08:38:03.481Z,86
2019-03-01T08:39:07.134Z,86
2019-03-01T08:40:03.209Z,86
2019-03-01T08:41:03.801Z,86
2019-03-01T08:42:03.708Z,86
2019-03-01T08:43:03.513Z,86
2019-03-01T08:44:03.791Z,86
2019-03-01T08:45:03.666Z,86
2019-03-01T08:46:10.573Z,86
2019-03-01T08:47:03.833Z,86
2019-03-01T08:48:03.606Z,87
2019-03-01T08:49:06.499Z,87
2019-03-01T08:50:03.621Z,87
2019-03-01T08:51:03.455Z,87
2019-03-01T08:52:03.627Z,87
2019-03-01T08:53:03.556Z,87
2019-03-01T08:54:03.495Z,87
2019-03-01T08:55:04.776Z,87
2019-03-01T08:56:02.893Z,87
2019-03-01T08:57:03.727Z,87
2019-03-01T08:58:07.342Z,87
2019-03-01T08:59:03.218Z,87
2019-03-01T09:00:02.741Z,87
2019-03-01T09:01:09.897Z,87
2019-03-01T09:02:03.799Z,87
2019-03-01T09:03:03.592Z,87
2019-03-01T09:04:02.751Z,87
2019-03-01T09:05:10.007Z,87
2019-03-01T09:06:03.910Z,87
2019-03-01T09:07:03.060Z,87
2019-03-01T09:08:02.807Z,87
2019-03-01T09:09:03.023Z,87
2019-03-01T09:10:03.011Z,87
2019-03-01T09:11:10.552Z,87
2019-03-01T09:12:02.915Z,87
2019-03-01T09:13:02.756Z,87
2019-03-01T09:14:03.386Z,87
2019-03-01T09:15:08.405Z,87
2019-03-01T09:16:03.602Z,87
2019-03-01T09:17:03.830Z,87
2019-03-01T09:18:02.951Z,87
2019-03-01T09:19:03.221Z,87
2019-03-01T09:20:03.467Z,87
2019-03-01T09:21:12.686Z,87
2019-03-01T09:22:02.990Z,87
2019-03-01T09:23:27.078Z,87
2019-03-01T09:24:03.269Z,87
2019-03-01T09:25:08.998Z,87
2019-03-01T09:26:03.116Z,87
2019-03-01T09:27:03.381Z,87
2019-03-01T09:28:03.170Z,87
2019-03-01T09:29:03.186Z,87
2019-03-01T09:30:04.505Z,87
2019-03-01T09:31:03.022Z,87
2019-03-01T09:32:02.881Z,87
2019-03-01T09:33:03.350Z,87
2019-03-01T09:34:03.111Z,87
2019-03-01T09:35:09.053Z,87
2019-03-01T09:36:02.731Z,87
2019-03-01T09:37:03.294Z,87
2019-03-01T09:38:08.502Z,87
2019-03-01T09:39:03.227Z,87
2019-03-01T09:40:06.189Z,87
2019-03-01T09:41:05.569Z,87
2019-03-01T09:42:06.624Z,86
2019-03-01T09:43:03.191Z,86
2019-03-01T09:44:03.986Z,86
2019-03-01T09:45:03.064Z,86
2019-03-01T09:46:03.186Z,86
2019-03-01T09:47:03.152Z,86
2019-03-01T09:48:08.557Z,86
2019-03-01T09:49:03.302Z,86
2019-03-01T09:50:03.501Z,86
2019-03-01T09:51:03.777Z,86
2019-03-01T09:52:03.194Z,86
2019-03-01T09:53:03.013Z,86
2019-03-01T09:54:02.793Z,86
2019-03-01T09:55:02.820Z,86
2019-03-01T09:56:03.078Z,86
2019-03-01T09:57:03.268Z,86
2019-03-01T09:58:03.231Z,86
2019-03-01T09:59:03.264Z,86
2019-03-01T10:00:03.315Z,86
2019-03-01T10:01:03.078Z,86
2019-03-01T10:02:03.111Z,86
2019-03-01T10:03:03.344Z,86
2019-03-01T10:04:03.483Z,86
2019-03-01T10:05:03.695Z,86
2019-03-01T10:06:03.256Z,86
2019-03-01T10:07:03.184Z,85
2019-03-01T10:08:02.907Z,85
2019-03-01T10:09:03.365Z,85
2019-03-01T10:10:03.619Z,85
2019-03-01T10:11:03.204Z,85
2019-03-01T10:12:03.322Z,85
2019-03-01T10:13:03.311Z,85
2019-03-01T10:14:02.984Z,85
2019-03-01T10:15:03.096Z,85
2019-03-01T10:16:03.387Z,85
2019-03-01T10:17:03.103Z,85
2019-03-01T10:18:03.561Z,85
2019-03-01T10:19:03.044Z,85
2019-03-01T10:20:03.317Z,85
2019-03-01T10:21:03.293Z,85
2019-03-01T10:22:03.195Z,85
2019-03-01T10:23:03.363Z,85
2019-03-01T10:24:03.306Z,85
2019-03-01T10:25:03.288Z,85
2019-03-01T10:26:02.969Z,85
2019-03-01T10:27:03.837Z,85
2019-03-01T10:28:03.623Z,85
2019-03-01T10:29:03.525Z,85
2019-03-01T10:30:03.274Z,85
2019-03-01T10:31:03.301Z,85
2019-03-01T10:32:03.318Z,85
2019-03-01T10:33:03.634Z,86
2019-03-01T10:34:03.390Z,86
2019-03-01T10:35:03.492Z,86
2019-03-01T10:36:03.420Z,86
2019-03-01T10:37:03.296Z,86
2019-03-01T10:38:03.231Z,85
2019-03-01T10:39:03.476Z,85
2019-03-01T10:40:03.572Z,85
2019-03-01T10:41:03.407Z,85
2019-03-01T10:42:03.569Z,85
2019-03-01T10:43:03.240Z,85
2019-03-01T10:44:03.129Z,85
2019-03-01T10:45:03.459Z,85
2019-03-01T10:46:03.327Z,85
2019-03-01T10:47:03.120Z,85
2019-03-01T10:48:03.269Z,85
2019-03-01T10:49:03.447Z,85
2019-03-01T10:50:03.036Z,85
2019-03-01T10:51:03.349Z,85
2019-03-01T10:52:02.829Z,85
2019-03-01T10:53:03.540Z,85
2019-03-01T10:54:03.150Z,85
2019-03-01T10:55:03.314Z,85
2019-03-01T10:56:02.830Z,85
2019-03-01T10:57:02.938Z,85
2019-03-01T10:58:03.051Z,85
2019-03-01T10:59:03.405Z,85
2019-03-01T11:00:03.201Z,85
2019-03-01T11:01:03.072Z,84
2019-03-01T11:02:03.086Z,85
2019-03-01T11:03:02.795Z,85
2019-03-01T11:04:03.773Z,85
2019-03-01T11:05:02.958Z,85
2019-03-01T11:06:03.106Z,85
2019-03-01T11:07:02.798Z,85
2019-03-01T11:08:03.079Z,85
2019-03-01T11:09:02.856Z,85
2019-03-01T11:10:03.451Z,85
2019-03-01T11:11:03.095Z,85
2019-03-01T11:12:03.275Z,85
2019-03-01T11:13:02.802Z,85
2019-03-01T11:14:03.104Z,85
2019-03-01T11:15:03.065Z,85
2019-03-01T11:16:02.905Z,85
2019-03-01T11:17:03.151Z,85
2019-03-01T11:18:02.948Z,85
2019-03-01T11:19:02.967Z,84
2019-03-01T11:20:03.618Z,85
2019-03-01T11:21:03.826Z,84
2019-03-01T11:22:02.797Z,85
2019-03-01T11:23:03.082Z,85
2019-03-01T11:24:03.577Z,85
2019-03-01T11:25:03.954Z,85
2019-03-01T11:26:02.727Z,85
2019-03-01T11:27:13.355Z,85
2019-03-01T11:28:03.512Z,85
2019-03-01T11:29:03.107Z,85
2019-03-01T11:30:03.255Z,85
2019-03-01T11:31:02.889Z,85
2019-03-01T11:32:02.744Z,84
2019-03-01T11:33:02.844Z,84
2019-03-01T11:34:02.830Z,84
2019-03-01T11:35:03.135Z,85
2019-03-01T11:36:02.886Z,85
2019-03-01T11:37:02.870Z,85
2019-03-01T11:38:02.606Z,85
2019-03-01T11:39:02.996Z,85
2019-03-01T11:40:03.188Z,84
2019-03-01T11:41:02.904Z,84
2019-03-01T11:42:03.264Z,84
2019-03-01T11:43:03.151Z,84
2019-03-01T11:44:02.930Z,84
2019-03-01T11:45:03.714Z,84
2019-03-01T11:46:02.921Z,84
2019-03-01T11:47:03.056Z,84
2019-03-01T11:48:03.095Z,84
2019-03-01T11:49:02.793Z,84
2019-03-01T11:50:03.367Z,84
2019-03-01T11:51:02.877Z,84
2019-03-01T11:52:02.996Z,84
2019-03-01T11:53:03.113Z,84
2019-03-01T11:54:02.951Z,84
2019-03-01T11:55:03.116Z,84
2019-03-01T11:56:02.903Z,84
2019-03-01T11:57:02.898Z,84
2019-03-01T11:58:03.031Z,84
2019-03-01T11:59:02.831Z,84
2019-03-01T12:00:02.736Z,84
2019-03-01T12:01:04.535Z,84
2019-03-01T12:02:02.837Z,84
2019-03-01T12:03:03.687Z,84
2019-03-01T12:04:03.165Z,84
2019-03-01T12:05:03.009Z,84
2019-03-01T12:06:02.900Z,84
2019-03-01T12:07:02.976Z,84
2019-03-01T12:08:03.129Z,84
2019-03-01T12:09:03.746Z,84
2019-03-01T12:10:02.997Z,84
2019-03-01T12:11:02.807Z,84
2019-03-01T12:12:02.994Z,84
2019-03-01T12:13:02.978Z,84
2019-03-01T12:14:02.928Z,84
2019-03-01T12:15:02.963Z,84
2019-03-01T12:16:03.691Z,84
2019-03-01T12:17:02.729Z,83
2019-03-01T12:18:02.641Z,83
2019-03-01T12:19:02.591Z,83
2019-03-01T12:20:03.808Z,83
2019-03-01T12:21:02.978Z,83
2019-03-01T12:22:03.707Z,83
2019-03-01T12:23:03.605Z,83
2019-03-01T12:24:03.001Z,83
2019-03-01T12:25:02.837Z,83
2019-03-01T12:26:03.015Z,83
2019-03-01T12:27:03.485Z,83
2019-03-01T12:28:02.881Z,83
2019-03-01T12:29:02.621Z,83
2019-03-01T12:30:03.667Z,83
2019-03-01T12:31:02.827Z,83
2019-03-01T12:32:02.924Z,83
2019-03-01T12:33:03.829Z,83
2019-03-01T12:34:03.159Z,83
2019-03-01T12:35:03.984Z,83
2019-03-01T12:36:02.754Z,83
2019-03-01T12:37:02.689Z,83
2019-03-01T12:38:03.122Z,82
2019-03-01T12:39:02.887Z,82
2019-03-01T12:40:03.714Z,82
2019-03-01T12:41:02.819Z,82
2019-03-01T12:42:03.695Z,82
2019-03-01T12:43:02.947Z,82
2019-03-01T12:44:02.826Z,82
2019-03-01T12:45:03.186Z,82
2019-03-01T12:46:02.947Z,82
2019-03-01T12:47:02.870Z,82
2019-03-01T12:48:02.994Z,82
2019-03-01T12:49:02.997Z,82
2019-03-01T12:50:03.036Z,82
2019-03-01T12:51:03.487Z,82
2019-03-01T12:52:02.816Z,82
2019-03-01T12:53:03.709Z,82
2019-03-01T12:54:03.517Z,81
2019-03-01T12:55:03.805Z,81
2019-03-01T12:56:02.739Z,81
2019-03-01T12:57:03.605Z,81
2019-03-01T12:58:03.626Z,81
2019-03-01T12:59:03.570Z,81
2019-03-01T13:00:03.165Z,81
2019-03-01T13:01:03.086Z,81
2019-03-01T13:02:02.934Z,81
2019-03-01T13:03:09.941Z,81
2019-03-01T13:04:03.775Z,81
2019-03-01T13:05:02.803Z,81
2019-03-01T13:06:04.878Z,81
2019-03-01T13:07:02.939Z,81
2019-03-01T13:08:03.023Z,81
2019-03-01T13:09:03.217Z,81
2019-03-01T13:10:07.173Z,81
2019-03-01T13:11:02.736Z,81
2019-03-01T13:12:03.829Z,81
2019-03-01T13:13:08.889Z,81
2019-03-01T13:14:02.900Z,81
2019-03-01T13:15:03.083Z,81
2019-03-01T13:16:03.175Z,81
2019-03-01T13:17:03.190Z,81
2019-03-01T13:18:03.928Z,81
2019-03-01T13:19:03.718Z,81
2019-03-01T13:20:02.971Z,81
2019-03-01T13:21:03.824Z,81
2019-03-01T13:22:03.047Z,81
2019-03-01T13:23:06.446Z,81
2019-03-01T13:24:03.047Z,81
2019-03-01T13:25:02.599Z,81
2019-03-01T13:26:07.143Z,81
2019-03-01T13:27:03.771Z,81
2019-03-01T13:28:02.800Z,81
2019-03-01T13:29:03.514Z,81
2019-03-01T13:30:03.033Z,81
2019-03-01T13:31:03.853Z,80
2019-03-01T13:32:03.347Z,81
2019-03-01T13:33:03.856Z,80
2019-03-01T13:34:02.891Z,80
2019-03-01T13:35:03.223Z,80
2019-03-01T13:36:04.791Z,80
2019-03-01T13:37:03.032Z,80
2019-03-01T13:38:04.239Z,80
2019-03-01T13:39:03.074Z,79
2019-03-01T13:40:03.069Z,79
2019-03-01T13:41:03.295Z,80
2019-03-01T13:42:02.908Z,80
2019-03-01T13:43:03.238Z,80
2019-03-01T13:44:04.389Z,80
2019-03-01T13:45:03.481Z,80
2019-03-01T13:46:02.684Z,80
2019-03-01T13:47:09.522Z,80
2019-03-01T13:48:03.554Z,80
2019-03-01T13:49:03.096Z,80
2019-03-01T13:50:07.001Z,80
2019-03-01T13:51:02.902Z,79
2019-03-01T13:52:03.002Z,79
2019-03-01T13:53:02.708Z,79
2019-03-01T13:54:09.905Z,79
2019-03-01T13:55:02.653Z,79
2019-03-01T13:56:03.594Z,79
2019-03-01T13:57:03.425Z,79
2019-03-01T13:58:03.307Z,80
2019-03-01T13:59:04.149Z,79
2019-03-01T14:00:03.766Z,79
2019-03-01T14:01:03.612Z,79
2019-03-01T14:02:08.583Z,79
2019-03-01T14:03:03.562Z,79
2019-03-01T14:04:04.331Z,80
2019-03-01T14:05:03.416Z,80
2019-03-01T14:06:03.436Z,80
2019-03-01T14:07:03.236Z,80
2019-03-01T14:08:09.613Z,80
2019-03-01T14:09:02.777Z,80
2019-03-01T14:10:06.280Z,80
2019-03-01T14:11:04.012Z,80
2019-03-01T14:12:03.613Z,80
2019-03-01T14:13:03.668Z,80
2019-03-01T14:14:03.267Z,80
2019-03-01T14:15:04.026Z,80